sensor_id;sensor_type;location;lat;lon;timestamp;pressure;altitude;pressure_sealevel;temperature;humidity
7105;BME280;3594;42.152;24.714;2023-09-19T00:01:58;61046.84;;;15.71;nan
7105;BME280;3594;42.152;24.714;2023-09-19T00:04:24;61125.78;;;15.73;nan
7105;BME280;3594;42.152;24.714;2023-09-19T00:06:54;61149.47;;;15.94;nan
7105;BME280;3594;42.152;24.714;2023-09-19T00:09:19;61156.81;;;15.84;nan
7105;BME280;3594;42.152;24.714;2023-09-19T00:11:45;61124.59;;;15.60;nan
7105;BME280;3594;42.152;24.714;2023-09-19T00:14:12;61150.19;;;15.69;nan
7105;BME280;3594;42.152;24.714;2023-09-19T00:16:39;61117.19;;;15.74;nan
7105;BME280;3594;42.152;24.714;2023-09-19T00:19:06;61119.69;;;15.63;nan
7105;BME280;3594;42.152;24.714;2023-09-19T00:21:34;61100.84;;;15.60;nan
7105;BME280;3594;42.152;24.714;2023-09-19T00:24:01;61336.75;;;15.45;nan
7105;BME280;3594;42.152;24.714;2023-09-19T00:26:26;61072.16;;;15.45;nan
7105;BME280;3594;42.152;24.714;2023-09-19T00:28:55;60976.88;;;15.34;nan
7105;BME280;3594;42.152;24.714;2023-09-19T00:31:22;61060.44;;;15.46;nan
7105;BME280;3594;42.152;24.714;2023-09-19T00:33:48;61048.28;;;15.38;nan
7105;BME280;3594;42.152;24.714;2023-09-19T00:36:14;61202.47;;;15.56;nan
7105;BME280;3594;42.152;24.714;2023-09-19T00:38:39;61147.84;;;15.72;nan
7105;BME280;3594;42.152;24.714;2023-09-19T00:41:04;61268.91;;;15.72;nan
7105;BME280;3594;42.152;24.714;2023-09-19T00:43:30;61131.84;;;15.87;nan
7105;BME280;3594;42.152;24.714;2023-09-19T00:45:59;62504.19;;;12.84;nan
7105;BME280;3594;42.152;24.714;2023-09-19T00:48:28;61111.13;;;15.60;nan
7105;BME280;3594;42.152;24.714;2023-09-19T00:50:54;61121.63;;;15.67;nan
7105;BME280;3594;42.152;24.714;2023-09-19T00:53:23;61210.69;;;15.40;nan
7105;BME280;3594;42.152;24.714;2023-09-19T00:55:51;61100.28;;;15.59;nan
7105;BME280;3594;42.152;24.714;2023-09-19T00:58:18;61122.09;;;15.72;nan
7105;BME280;3594;42.152;24.714;2023-09-19T01:00:44;61100.59;;;15.57;nan
7105;BME280;3594;42.152;24.714;2023-09-19T01:03:10;61132.81;;;15.44;nan
7105;BME280;3594;42.152;24.714;2023-09-19T01:05:36;61048.38;;;15.33;nan
7105;BME280;3594;42.152;24.714;2023-09-19T01:08:01;61129.03;;;14.95;nan
7105;BME280;3594;42.152;24.714;2023-09-19T01:10:27;60974.44;;;14.76;nan
7105;BME280;3594;42.152;24.714;2023-09-19T01:24:00;60912.59;;;14.69;nan
7105;BME280;3594;42.152;24.714;2023-09-19T01:29:41;60933.97;;;14.72;nan
7105;BME280;3594;42.152;24.714;2023-09-19T01:32:10;60934.69;;;14.80;nan
7105;BME280;3594;42.152;24.714;2023-09-19T01:37:14;60785.13;;;14.58;nan
7105;BME280;3594;42.152;24.714;2023-09-19T01:39:45;60862.84;;;14.87;nan
7105;BME280;3594;42.152;24.714;2023-09-19T01:42:41;60760.25;;;14.73;nan
7105;BME280;3594;42.152;24.714;2023-09-19T01:45:22;60777.50;;;14.82;nan
7105;BME280;3594;42.152;24.714;2023-09-19T01:47:53;60655.16;;;14.59;nan
7105;BME280;3594;42.152;24.714;2023-09-19T01:50:41;60579.84;;;14.68;nan
7105;BME280;3594;42.152;24.714;2023-09-19T01:53:15;60567.72;;;14.36;nan
7105;BME280;3594;42.152;24.714;2023-09-19T01:55:48;60277.28;;;14.29;nan
7105;BME280;3594;42.152;24.714;2023-09-19T01:58:32;59933.03;;;14.41;nan
7105;BME280;3594;42.152;24.714;2023-09-19T02:01:00;59735.25;;;14.15;nan
7105;BME280;3594;42.152;24.714;2023-09-19T02:03:26;59755.38;;;14.36;nan
7105;BME280;3594;42.152;24.714;2023-09-19T02:05:54;59913.94;;;14.40;nan
7105;BME280;3594;42.152;24.714;2023-09-19T02:08:21;59864.47;;;14.25;nan
7105;BME280;3594;42.152;24.714;2023-09-19T02:10:49;59676.88;;;14.37;nan
7105;BME280;3594;42.152;24.714;2023-09-19T02:13:18;59707.31;;;14.39;nan
7105;BME280;3594;42.152;24.714;2023-09-19T02:15:45;59466.22;;;14.08;nan
7105;BME280;3594;42.152;24.714;2023-09-19T02:18:12;59521.44;;;14.26;nan
7105;BME280;3594;42.152;24.714;2023-09-19T02:20:38;59737.66;;;14.20;nan
7105;BME280;3594;42.152;24.714;2023-09-19T02:23:03;59729.25;;;14.24;nan
7105;BME280;3594;42.152;24.714;2023-09-19T02:25:29;59625.44;;;14.30;nan
7105;BME280;3594;42.152;24.714;2023-09-19T02:27:56;59601.38;;;14.10;nan
7105;BME280;3594;42.152;24.714;2023-09-19T02:30:24;59534.97;;;13.25;nan
7105;BME280;3594;42.152;24.714;2023-09-19T02:32:50;59545.25;;;14.08;nan
7105;BME280;3594;42.152;24.714;2023-09-19T02:35:15;59504.00;;;14.12;nan
7105;BME280;3594;42.152;24.714;2023-09-19T02:37:41;59587.59;;;13.97;nan
7105;BME280;3594;42.152;24.714;2023-09-19T02:40:07;59931.03;;;14.23;nan
7105;BME280;3594;42.152;24.714;2023-09-19T02:42:49;59876.06;;;14.03;nan
7105;BME280;3594;42.152;24.714;2023-09-19T02:45:18;60168.22;;;14.21;nan
7105;BME280;3594;42.152;24.714;2023-09-19T02:47:47;60191.22;;;13.95;nan
7105;BME280;3594;42.152;24.714;2023-09-19T02:50:13;60104.63;;;13.91;nan
7105;BME280;3594;42.152;24.714;2023-09-19T02:52:45;59974.59;;;14.08;nan
7105;BME280;3594;42.152;24.714;2023-09-19T02:55:15;59746.63;;;13.76;nan
7105;BME280;3594;42.152;24.714;2023-09-19T02:58:00;59439.06;;;13.74;nan
7105;BME280;3594;42.152;24.714;2023-09-19T03:00:27;59184.44;;;13.88;nan
7105;BME280;3594;42.152;24.714;2023-09-19T03:02:56;58898.88;;;13.68;nan
7105;BME280;3594;42.152;24.714;2023-09-19T03:05:22;59122.28;;;13.94;nan
7105;BME280;3594;42.152;24.714;2023-09-19T03:07:51;59523.41;;;13.90;nan
7105;BME280;3594;42.152;24.714;2023-09-19T03:10:18;59670.16;;;13.69;nan
7105;BME280;3594;42.152;24.714;2023-09-19T03:12:43;59674.28;;;13.90;nan
7105;BME280;3594;42.152;24.714;2023-09-19T03:15:09;59512.91;;;13.66;nan
7105;BME280;3594;42.152;24.714;2023-09-19T03:17:35;59380.03;;;13.74;nan
7105;BME280;3594;42.152;24.714;2023-09-19T03:20:01;59072.75;;;13.67;nan
7105;BME280;3594;42.152;24.714;2023-09-19T03:22:27;58715.56;;;13.41;nan
7105;BME280;3594;42.152;24.714;2023-09-19T03:24:53;58457.84;;;13.44;nan
7105;BME280;3594;42.152;24.714;2023-09-19T03:27:19;58252.09;;;13.60;nan
7105;BME280;3594;42.152;24.714;2023-09-19T03:29:46;58701.84;;;13.59;nan
7105;BME280;3594;42.152;24.714;2023-09-19T03:32:11;59117.22;;;13.80;nan
7105;BME280;3594;42.152;24.714;2023-09-19T03:34:40;59580.34;;;13.62;nan
7105;BME280;3594;42.152;24.714;2023-09-19T03:37:08;59665.19;;;13.65;nan
7105;BME280;3594;42.152;24.714;2023-09-19T03:39:34;59826.94;;;13.79;nan
7105;BME280;3594;42.152;24.714;2023-09-19T03:42:00;59855.56;;;13.84;nan
7105;BME280;3594;42.152;24.714;2023-09-19T03:44:26;60098.41;;;13.79;nan
7105;BME280;3594;42.152;24.714;2023-09-19T03:46:51;60096.06;;;13.81;nan
7105;BME280;3594;42.152;24.714;2023-09-19T03:49:17;60098.09;;;13.50;nan
7105;BME280;3594;42.152;24.714;2023-09-19T03:51:42;59951.59;;;13.22;nan
7105;BME280;3594;42.152;24.714;2023-09-19T03:54:08;59383.88;;;13.14;nan
7105;BME280;3594;42.152;24.714;2023-09-19T03:56:34;58561.69;;;12.98;nan
7105;BME280;3594;42.152;24.714;2023-09-19T03:58:59;58129.41;;;12.91;nan
7105;BME280;3594;42.152;24.714;2023-09-19T04:01:25;57995.56;;;12.88;nan
7105;BME280;3594;42.152;24.714;2023-09-19T04:03:52;57507.63;;;13.04;nan
7105;BME280;3594;42.152;24.714;2023-09-19T04:06:18;57282.97;;;12.97;nan
7105;BME280;3594;42.152;24.714;2023-09-19T04:08:44;57310.09;;;12.84;nan
7105;BME280;3594;42.152;24.714;2023-09-19T04:11:10;56964.53;;;12.87;nan
7105;BME280;3594;42.152;24.714;2023-09-19T04:13:35;56521.75;;;12.92;nan
7105;BME280;3594;42.152;24.714;2023-09-19T04:16:01;55554.59;;;12.87;nan
7105;BME280;3594;42.152;24.714;2023-09-19T04:18:29;54513.72;;;12.70;nan
7105;BME280;3594;42.152;24.714;2023-09-19T04:20:56;53949.84;;;12.84;nan
7105;BME280;3594;42.152;24.714;2023-09-19T04:23:21;53516.69;;;13.01;nan
7105;BME280;3594;42.152;24.714;2023-09-19T04:25:47;53729.41;;;13.09;nan
7105;BME280;3594;42.152;24.714;2023-09-19T04:28:13;53382.19;;;13.20;nan
7105;BME280;3594;42.152;24.714;2023-09-19T04:30:38;53203.22;;;13.34;nan
7105;BME280;3594;42.152;24.714;2023-09-19T04:33:07;52730.84;;;13.32;nan
7105;BME280;3594;42.152;24.714;2023-09-19T04:35:33;53642.28;;;13.43;nan
7105;BME280;3594;42.152;24.714;2023-09-19T04:38:00;54755.09;;;13.47;nan
7105;BME280;3594;42.152;24.714;2023-09-19T04:40:25;56074.69;;;13.92;nan
7105;BME280;3594;42.152;24.714;2023-09-19T04:42:55;56973.97;;;13.98;nan
7105;BME280;3594;42.152;24.714;2023-09-19T04:45:25;57178.44;;;13.93;nan
7105;BME280;3594;42.152;24.714;2023-09-19T04:47:54;57427.88;;;14.08;nan
7105;BME280;3594;42.152;24.714;2023-09-19T04:50:20;57826.28;;;14.23;nan
7105;BME280;3594;42.152;24.714;2023-09-19T04:52:51;58206.56;;;14.40;nan
7105;BME280;3594;42.152;24.714;2023-09-19T04:55:18;58509.06;;;14.59;nan
7105;BME280;3594;42.152;24.714;2023-09-19T04:57:48;58744.50;;;14.87;nan
7105;BME280;3594;42.152;24.714;2023-09-19T05:00:15;58884.78;;;12.55;nan
7105;BME280;3594;42.152;24.714;2023-09-19T05:02:42;59405.91;;;13.77;nan
7105;BME280;3594;42.152;24.714;2023-09-19T05:05:08;59676.47;;;15.14;nan
7105;BME280;3594;42.152;24.714;2023-09-19T05:07:35;60344.41;;;15.53;nan
7105;BME280;3594;42.152;24.714;2023-09-19T05:10:01;60346.31;;;15.45;nan
7105;BME280;3594;42.152;24.714;2023-09-19T05:12:26;60549.44;;;15.66;nan
7105;BME280;3594;42.152;24.714;2023-09-19T05:14:52;60453.28;;;15.56;nan
7105;BME280;3594;42.152;24.714;2023-09-19T05:17:18;60773.00;;;15.84;nan
7105;BME280;3594;42.152;24.714;2023-09-19T05:19:43;60690.47;;;15.77;nan
7105;BME280;3594;42.152;24.714;2023-09-19T05:22:08;60859.41;;;16.11;nan
7105;BME280;3594;42.152;24.714;2023-09-19T05:24:34;60796.50;;;15.71;nan
7105;BME280;3594;42.152;24.714;2023-09-19T05:26:59;61035.38;;;16.47;nan
7105;BME280;3594;42.152;24.714;2023-09-19T05:29:26;61041.34;;;16.50;nan
7105;BME280;3594;42.152;24.714;2023-09-19T05:31:51;61087.44;;;16.79;nan
7105;BME280;3594;42.152;24.714;2023-09-19T05:34:20;60971.97;;;17.03;nan
7105;BME280;3594;42.152;24.714;2023-09-19T05:36:45;60988.53;;;16.81;nan
7105;BME280;3594;42.152;24.714;2023-09-19T05:39:11;61010.38;;;17.17;nan
7105;BME280;3594;42.152;24.714;2023-09-19T05:41:37;61098.13;;;17.05;nan
7105;BME280;3594;42.152;24.714;2023-09-19T05:44:05;61005.47;;;17.31;nan
7105;BME280;3594;42.152;24.714;2023-09-19T05:46:32;60992.78;;;17.22;nan
7105;BME280;3594;42.152;24.714;2023-09-19T05:48:57;61040.59;;;17.26;nan
7105;BME280;3594;42.152;24.714;2023-09-19T05:51:23;61245.81;;;17.50;nan
7105;BME280;3594;42.152;24.714;2023-09-19T05:53:49;61105.66;;;17.70;nan
7105;BME280;3594;42.152;24.714;2023-09-19T05:56:15;61023.03;;;17.54;nan
7105;BME280;3594;42.152;24.714;2023-09-19T05:58:40;60840.13;;;15.64;nan
7105;BME280;3594;42.152;24.714;2023-09-19T06:01:10;60942.53;;;17.95;nan
7105;BME280;3594;42.152;24.714;2023-09-19T06:03:35;61206.81;;;18.19;nan
7105;BME280;3594;42.152;24.714;2023-09-19T06:06:19;61199.97;;;18.29;nan
7105;BME280;3594;42.152;24.714;2023-09-19T06:08:45;61104.88;;;18.30;nan
7105;BME280;3594;42.152;24.714;2023-09-19T06:11:10;61254.31;;;18.41;nan
7105;BME280;3594;42.152;24.714;2023-09-19T06:13:36;61322.13;;;18.58;nan
7105;BME280;3594;42.152;24.714;2023-09-19T06:16:04;61261.16;;;18.98;nan
7105;BME280;3594;42.152;24.714;2023-09-19T06:18:33;61325.47;;;19.16;nan
7105;BME280;3594;42.152;24.714;2023-09-19T06:21:01;61308.47;;;19.17;nan
7105;BME280;3594;42.152;24.714;2023-09-19T06:23:31;61419.19;;;19.21;nan
7105;BME280;3594;42.152;24.714;2023-09-19T06:25:56;61301.44;;;19.48;nan
7105;BME280;3594;42.152;24.714;2023-09-19T06:28:22;61394.69;;;19.36;nan
7105;BME280;3594;42.152;24.714;2023-09-19T06:30:51;61356.38;;;19.65;nan
7105;BME280;3594;42.152;24.714;2023-09-19T06:33:17;61480.88;;;19.60;nan
7105;BME280;3594;42.152;24.714;2023-09-19T06:35:43;61657.59;;;19.81;nan
7105;BME280;3594;42.152;24.714;2023-09-19T06:38:12;61417.94;;;19.80;nan
7105;BME280;3594;42.152;24.714;2023-09-19T06:40:38;61431.59;;;19.88;nan
7105;BME280;3594;42.152;24.714;2023-09-19T06:43:04;61370.06;;;20.07;nan
7105;BME280;3594;42.152;24.714;2023-09-19T06:45:30;61572.19;;;20.16;nan
7105;BME280;3594;42.152;24.714;2023-09-19T06:47:57;61474.31;;;20.24;nan
7105;BME280;3594;42.152;24.714;2023-09-19T06:50:23;61495.78;;;20.32;nan
7105;BME280;3594;42.152;24.714;2023-09-19T06:52:50;61609.09;;;20.45;nan
7105;BME280;3594;42.152;24.714;2023-09-19T06:55:18;61569.78;;;20.63;nan
7105;BME280;3594;42.152;24.714;2023-09-19T06:57:44;61581.28;;;20.52;nan
7105;BME280;3594;42.152;24.714;2023-09-19T07:00:11;61566.41;;;20.60;nan
7105;BME280;3594;42.152;24.714;2023-09-19T07:03:00;61672.97;;;20.67;nan
7105;BME280;3594;42.152;24.714;2023-09-19T07:05:35;61726.72;;;20.48;nan
7105;BME280;3594;42.152;24.714;2023-09-19T07:08:03;61593.56;;;20.84;nan
7105;BME280;3594;42.152;24.714;2023-09-19T07:10:29;61592.63;;;20.74;nan
7105;BME280;3594;42.152;24.714;2023-09-19T07:13:05;61592.34;;;20.88;nan
7105;BME280;3594;42.152;24.714;2023-09-19T07:15:34;61748.00;;;20.97;nan
7105;BME280;3594;42.152;24.714;2023-09-19T07:18:07;61501.19;;;20.73;nan
7105;BME280;3594;42.152;24.714;2023-09-19T07:20:36;61687.44;;;21.49;nan
7105;BME280;3594;42.152;24.714;2023-09-19T07:23:01;61686.09;;;21.18;nan
7105;BME280;3594;42.152;24.714;2023-09-19T07:25:30;61658.22;;;21.26;nan
7105;BME280;3594;42.152;24.714;2023-09-19T07:27:56;61723.97;;;21.29;nan
7105;BME280;3594;42.152;24.714;2023-09-19T07:30:25;61721.00;;;21.47;nan
7105;BME280;3594;42.152;24.714;2023-09-19T07:35:18;61700.66;;;21.52;nan
7105;BME280;3594;42.152;24.714;2023-09-19T07:37:46;61904.81;;;21.88;nan
7105;BME280;3594;42.152;24.714;2023-09-19T07:40:15;61989.94;;;22.13;nan
7105;BME280;3594;42.152;24.714;2023-09-19T07:42:40;61832.13;;;21.51;nan
7105;BME280;3594;42.152;24.714;2023-09-19T07:45:09;61734.06;;;21.31;nan
7105;BME280;3594;42.152;24.714;2023-09-19T07:47:39;61922.44;;;21.87;nan
7105;BME280;3594;42.152;24.714;2023-09-19T07:50:04;61972.22;;;22.18;nan
7105;BME280;3594;42.152;24.714;2023-09-19T07:52:32;61851.00;;;21.91;nan
7105;BME280;3594;42.152;24.714;2023-09-19T07:54:58;61955.41;;;22.05;nan
7105;BME280;3594;42.152;24.714;2023-09-19T07:57:26;61951.41;;;22.01;nan
7105;BME280;3594;42.152;24.714;2023-09-19T07:59:52;61948.56;;;22.43;nan
7105;BME280;3594;42.152;24.714;2023-09-19T08:02:18;61919.06;;;22.00;nan
7105;BME280;3594;42.152;24.714;2023-09-19T08:04:44;61910.69;;;22.28;nan
7105;BME280;3594;42.152;24.714;2023-09-19T08:07:11;62050.63;;;22.48;nan
7105;BME280;3594;42.152;24.714;2023-09-19T08:09:37;62032.69;;;22.62;nan
7105;BME280;3594;42.152;24.714;2023-09-19T08:12:04;62016.59;;;22.73;nan
7105;BME280;3594;42.152;24.714;2023-09-19T08:14:30;62099.28;;;23.10;nan
7105;BME280;3594;42.152;24.714;2023-09-19T08:16:58;62087.16;;;23.36;nan
7105;BME280;3594;42.152;24.714;2023-09-19T08:19:24;62074.97;;;23.23;nan
7105;BME280;3594;42.152;24.714;2023-09-19T08:21:55;62212.47;;;23.92;nan
7105;BME280;3594;42.152;24.714;2023-09-19T08:24:20;62124.94;;;24.32;nan
7105;BME280;3594;42.152;24.714;2023-09-19T08:26:46;62150.81;;;24.30;nan
7105;BME280;3594;42.152;24.714;2023-09-19T08:29:11;62159.00;;;24.39;nan
7105;BME280;3594;42.152;24.714;2023-09-19T08:31:38;62182.00;;;24.50;nan
7105;BME280;3594;42.152;24.714;2023-09-19T08:34:03;62238.31;;;24.22;nan
7105;BME280;3594;42.152;24.714;2023-09-19T08:36:28;62165.66;;;23.99;nan
7105;BME280;3594;42.152;24.714;2023-09-19T08:38:56;62122.78;;;23.82;nan
7105;BME280;3594;42.152;24.714;2023-09-19T08:41:21;62265.59;;;23.74;nan
7105;BME280;3594;42.152;24.714;2023-09-19T08:43:46;62170.31;;;23.98;nan
7105;BME280;3594;42.152;24.714;2023-09-19T08:46:15;62196.63;;;24.17;nan
7105;BME280;3594;42.152;24.714;2023-09-19T08:48:49;62184.72;;;24.18;nan
7105;BME280;3594;42.152;24.714;2023-09-19T08:51:43;62190.75;;;24.05;nan
7105;BME280;3594;42.152;24.714;2023-09-19T08:56:46;62147.38;;;23.99;nan
7105;BME280;3594;42.152;24.714;2023-09-19T08:59:13;62223.31;;;24.17;nan
7105;BME280;3594;42.152;24.714;2023-09-19T09:01:40;62156.91;;;24.28;nan
7105;BME280;3594;42.152;24.714;2023-09-19T09:04:08;62048.16;;;23.99;nan
7105;BME280;3594;42.152;24.714;2023-09-19T09:06:34;62153.06;;;24.04;nan
7105;BME280;3594;42.152;24.714;2023-09-19T09:09:01;62061.75;;;23.88;nan
7105;BME280;3594;42.152;24.714;2023-09-19T09:11:28;62210.88;;;24.30;nan
7105;BME280;3594;42.152;24.714;2023-09-19T09:13:53;62216.81;;;24.37;nan
7105;BME280;3594;42.152;24.714;2023-09-19T09:16:19;62222.91;;;24.52;nan
7105;BME280;3594;42.152;24.714;2023-09-19T09:18:45;62219.81;;;24.47;nan
7105;BME280;3594;42.152;24.714;2023-09-19T09:21:12;62071.53;;;24.31;nan
7105;BME280;3594;42.152;24.714;2023-09-19T09:23:38;62150.94;;;24.09;nan
7105;BME280;3594;42.152;24.714;2023-09-19T09:26:04;62099.19;;;23.86;nan
7105;BME280;3594;42.152;24.714;2023-09-19T09:28:32;62098.28;;;23.88;nan
7105;BME280;3594;42.152;24.714;2023-09-19T09:30:58;62200.19;;;24.27;nan
7105;BME280;3594;42.152;24.714;2023-09-19T09:33:24;63773.69;;;21.21;nan
7105;BME280;3594;42.152;24.714;2023-09-19T09:35:54;62453.78;;;24.83;nan
7105;BME280;3594;42.152;24.714;2023-09-19T09:38:26;62446.28;;;24.97;nan
7105;BME280;3594;42.152;24.714;2023-09-19T09:40:56;62463.25;;;25.21;nan
7105;BME280;3594;42.152;24.714;2023-09-19T09:43:33;62351.53;;;25.68;nan
7105;BME280;3594;42.152;24.714;2023-09-19T09:46:10;62455.28;;;25.58;nan
7105;BME280;3594;42.152;24.714;2023-09-19T09:49:03;62370.72;;;25.55;nan
7105;BME280;3594;42.152;24.714;2023-09-19T09:51:51;62405.81;;;25.61;nan
7105;BME280;3594;42.152;24.714;2023-09-19T09:54:25;62301.72;;;25.45;nan
7105;BME280;3594;42.152;24.714;2023-09-19T09:57:05;62371.53;;;25.58;nan
7105;BME280;3594;42.152;24.714;2023-09-19T09:59:53;62448.72;;;25.06;nan
7105;BME280;3594;42.152;24.714;2023-09-19T10:02:27;62383.72;;;24.83;nan
7105;BME280;3594;42.152;24.714;2023-09-19T10:05:14;62297.91;;;24.77;nan
7105;BME280;3594;42.152;24.714;2023-09-19T10:07:47;62403.28;;;24.96;nan
7105;BME280;3594;42.152;24.714;2023-09-19T10:10:29;62504.94;;;24.98;nan
7105;BME280;3594;42.152;24.714;2023-09-19T10:13:02;62300.34;;;25.41;nan
7105;BME280;3594;42.152;24.714;2023-09-19T10:15:32;62359.00;;;25.59;nan
7105;BME280;3594;42.152;24.714;2023-09-19T10:18:00;62381.47;;;25.69;nan
7105;BME280;3594;42.152;24.714;2023-09-19T10:20:28;62352.81;;;24.60;nan
7105;BME280;3594;42.152;24.714;2023-09-19T10:23:01;62462.56;;;25.41;nan
7105;BME280;3594;42.152;24.714;2023-09-19T10:25:29;62368.09;;;26.22;nan
7105;BME280;3594;42.152;24.714;2023-09-19T10:27:57;62358.38;;;26.02;nan
7105;BME280;3594;42.152;24.714;2023-09-19T10:30:24;62505.56;;;25.91;nan
7105;BME280;3594;42.152;24.714;2023-09-19T10:33:02;62352.13;;;26.20;nan
7105;BME280;3594;42.152;24.714;2023-09-19T10:35:28;62476.81;;;26.58;nan
7105;BME280;3594;42.152;24.714;2023-09-19T10:37:59;62498.53;;;26.77;nan
7105;BME280;3594;42.152;24.714;2023-09-19T10:40:27;62497.78;;;26.86;nan
7105;BME280;3594;42.152;24.714;2023-09-19T10:43:05;62541.69;;;26.90;nan
7105;BME280;3594;42.152;24.714;2023-09-19T10:45:32;62495.28;;;27.33;nan
7105;BME280;3594;42.152;24.714;2023-09-19T10:48:01;62673.66;;;26.93;nan
7105;BME280;3594;42.152;24.714;2023-09-19T10:50:34;62477.09;;;26.84;nan
7105;BME280;3594;42.152;24.714;2023-09-19T10:53:04;62640.06;;;26.82;nan
7105;BME280;3594;42.152;24.714;2023-09-19T10:55:33;62466.97;;;26.43;nan
7105;BME280;3594;42.152;24.714;2023-09-19T10:58:01;62476.03;;;26.67;nan
7105;BME280;3594;42.152;24.714;2023-09-19T11:00:29;62475.03;;;26.45;nan
7105;BME280;3594;42.152;24.714;2023-09-19T11:05:40;62403.09;;;26.21;nan
7105;BME280;3594;42.152;24.714;2023-09-19T11:08:09;62640.13;;;26.33;nan
7105;BME280;3594;42.152;24.714;2023-09-19T11:10:50;62520.94;;;26.65;nan
7105;BME280;3594;42.152;24.714;2023-09-19T11:13:31;62732.03;;;26.73;nan
7105;BME280;3594;42.152;24.714;2023-09-19T11:26:50;62649.94;;;27.70;nan
7105;BME280;3594;42.152;24.714;2023-09-19T11:29:30;62651.53;;;28.03;nan
7105;BME280;3594;42.152;24.714;2023-09-19T11:31:57;62754.75;;;28.11;nan
7105;BME280;3594;42.152;24.714;2023-09-19T11:34:37;62762.78;;;28.18;nan
7105;BME280;3594;42.152;24.714;2023-09-19T11:39:37;62881.97;;;27.84;nan
7105;BME280;3594;42.152;24.714;2023-09-19T11:45:06;62718.44;;;28.16;nan
7105;BME280;3594;42.152;24.714;2023-09-19T11:47:32;62933.16;;;28.29;nan
7105;BME280;3594;42.152;24.714;2023-09-19T11:50:01;62684.16;;;28.21;nan
7105;BME280;3594;42.152;24.714;2023-09-19T11:52:28;62878.16;;;28.48;nan
7105;BME280;3594;42.152;24.714;2023-09-19T11:55:00;62807.31;;;28.67;nan
7105;BME280;3594;42.152;24.714;2023-09-19T11:57:27;62804.63;;;28.55;nan
7105;BME280;3594;42.152;24.714;2023-09-19T11:59:55;62772.81;;;28.41;nan
7105;BME280;3594;42.152;24.714;2023-09-19T12:02:39;62799.81;;;28.48;nan
7105;BME280;3594;42.152;24.714;2023-09-19T12:05:07;62745.84;;;28.45;nan
7105;BME280;3594;42.152;24.714;2023-09-19T12:07:42;62989.25;;;28.60;nan
7105;BME280;3594;42.152;24.714;2023-09-19T12:10:11;62897.16;;;28.76;nan
7105;BME280;3594;42.152;24.714;2023-09-19T12:12:37;62834.69;;;28.72;nan
7105;BME280;3594;42.152;24.714;2023-09-19T12:17:39;62900.31;;;28.65;nan
7105;BME280;3594;42.152;24.714;2023-09-19T12:20:09;62803.25;;;28.79;nan
7105;BME280;3594;42.152;24.714;2023-09-19T12:22:43;63036.22;;;28.83;nan
7105;BME280;3594;42.152;24.714;2023-09-19T12:25:09;62820.13;;;28.69;nan
7105;BME280;3594;42.152;24.714;2023-09-19T12:27:47;62691.63;;;28.39;nan
7105;BME280;3594;42.152;24.714;2023-09-19T12:30:13;62756.44;;;28.40;nan
7105;BME280;3594;42.152;24.714;2023-09-19T12:32:40;62741.25;;;28.41;nan
7105;BME280;3594;42.152;24.714;2023-09-19T12:35:07;62764.78;;;28.34;nan
7105;BME280;3594;42.152;24.714;2023-09-19T12:37:45;62793.50;;;28.43;nan
7105;BME280;3594;42.152;24.714;2023-09-19T12:40:18;62819.75;;;28.59;nan
7105;BME280;3594;42.152;24.714;2023-09-19T12:42:52;62753.03;;;28.49;nan
7105;BME280;3594;42.152;24.714;2023-09-19T12:45:19;62790.28;;;28.70;nan
7105;BME280;3594;42.152;24.714;2023-09-19T12:48:19;62880.91;;;28.71;nan
7105;BME280;3594;42.152;24.714;2023-09-19T12:53:36;62767.84;;;28.27;nan
7105;BME280;3594;42.152;24.714;2023-09-19T12:56:06;62697.41;;;28.16;nan
7105;BME280;3594;42.152;24.714;2023-09-19T12:58:32;62597.66;;;27.72;nan
7105;BME280;3594;42.152;24.714;2023-09-19T13:00:59;62593.19;;;27.63;nan
7105;BME280;3594;42.152;24.714;2023-09-19T13:03:26;62657.41;;;27.48;nan
7105;BME280;3594;42.152;24.714;2023-09-19T13:05:58;62611.09;;;27.31;nan
7105;BME280;3594;42.152;24.714;2023-09-19T13:08:30;62632.06;;;27.19;nan
7105;BME280;3594;42.152;24.714;2023-09-19T13:11:10;62572.91;;;27.15;nan
7105;BME280;3594;42.152;24.714;2023-09-19T13:13:45;62507.41;;;26.99;nan
7105;BME280;3594;42.152;24.714;2023-09-19T13:16:17;62510.97;;;27.09;nan
7105;BME280;3594;42.152;24.714;2023-09-19T13:18:51;62649.84;;;27.46;nan
7105;BME280;3594;42.152;24.714;2023-09-19T13:21:31;62724.09;;;27.54;nan
7105;BME280;3594;42.152;24.714;2023-09-19T13:24:24;62618.44;;;27.70;nan
7105;BME280;3594;42.152;24.714;2023-09-19T13:26:53;62867.38;;;27.69;nan
7105;BME280;3594;42.152;24.714;2023-09-19T13:29:19;62688.03;;;27.89;nan
7105;BME280;3594;42.152;24.714;2023-09-19T13:31:52;62772.03;;;27.94;nan
7105;BME280;3594;42.152;24.714;2023-09-19T13:34:20;62825.44;;;28.08;nan
7105;BME280;3594;42.152;24.714;2023-09-19T13:36:46;62689.34;;;27.97;nan
7105;BME280;3594;42.152;24.714;2023-09-19T13:39:14;62759.56;;;27.90;nan
7105;BME280;3594;42.152;24.714;2023-09-19T13:41:41;62664.34;;;28.05;nan
7105;BME280;3594;42.152;24.714;2023-09-19T13:44:08;62791.94;;;28.21;nan
7105;BME280;3594;42.152;24.714;2023-09-19T13:46:36;62643.75;;;27.99;nan
7105;BME280;3594;42.152;24.714;2023-09-19T13:49:02;62850.31;;;27.77;nan
7105;BME280;3594;42.152;24.714;2023-09-19T13:51:31;62617.19;;;27.45;nan
7105;BME280;3594;42.152;24.714;2023-09-19T13:53:56;62641.06;;;27.48;nan
7105;BME280;3594;42.152;24.714;2023-09-19T13:56:22;62704.91;;;27.51;nan
7105;BME280;3594;42.152;24.714;2023-09-19T13:58:48;62506.19;;;27.26;nan
7105;BME280;3594;42.152;24.714;2023-09-19T14:01:13;62653.69;;;27.59;nan
7105;BME280;3594;42.152;24.714;2023-09-19T14:03:39;62652.31;;;27.55;nan
7105;BME280;3594;42.152;24.714;2023-09-19T14:06:05;62662.56;;;27.53;nan
7105;BME280;3594;42.152;24.714;2023-09-19T14:08:31;62617.81;;;27.57;nan
7105;BME280;3594;42.152;24.714;2023-09-19T14:10:58;62666.72;;;27.47;nan
7105;BME280;3594;42.152;24.714;2023-09-19T14:13:23;62612.16;;;27.48;nan
7105;BME280;3594;42.152;24.714;2023-09-19T14:15:50;62682.69;;;27.38;nan
7105;BME280;3594;42.152;24.714;2023-09-19T14:18:16;62664.59;;;27.24;nan
7105;BME280;3594;42.152;24.714;2023-09-19T14:20:41;62571.88;;;27.10;nan
7105;BME280;3594;42.152;24.714;2023-09-19T14:23:07;62538.22;;;27.03;nan
7105;BME280;3594;42.152;24.714;2023-09-19T14:25:36;62522.00;;;26.98;nan
7105;BME280;3594;42.152;24.714;2023-09-19T14:28:03;62623.03;;;26.90;nan